Time;durP1;ratioP1;P1;durP2;ratioP2;P2;SDS_P1;SDS_P2;PMS_P1;PMS_P2;Temp;Humidity;BMP_temperature;BMP_pressure;BME280_temperature;BME280_humidity;BME280_pressure;Samples;Min_cycle;Max_cycle;Signal;HPM_P1;HPM_P2
2022/04/02 00:01:12;;;;;;;7.80;3.70;;;;;;;-0.76;94.26;98109.73;103593;1300;22830;-29
2022/04/02 00:03:37;;;;;;;6.80;3.60;;;;;;;-0.80;94.49;98105.52;103544;1300;24241;-25
2022/04/02 00:06:03;;;;;;;11.30;4.00;;;;;;;-0.95;93.42;98102.16;103521;1300;24192;-29
2022/04/02 00:08:29;;;;;;;7.60;3.90;;;;;;;-1.02;93.46;98098.70;103556;1300;24224;-25
2022/04/02 00:10:54;;;;;;;11.10;3.40;;;;;;;-0.99;93.64;98098.36;103565;1301;24365;-29
2022/04/02 00:13:20;;;;;;;4.50;2.50;;;;;;;-1.01;93.53;98100.29;103487;1300;24241;-31
2022/04/02 00:15:46;;;;;;;4.30;2.30;;;;;;;-1.08;93.61;98102.81;103529;1300;24300;-27
2022/04/02 00:18:11;;;;;;;11.70;3.30;;;;;;;-1.06;93.95;98096.59;103523;1300;22516;-28
2022/04/02 00:20:37;;;;;;;9.50;3.50;;;;;;;-1.11;94.20;98098.67;103493;1301;24355;-25
2022/04/02 00:25:32;;;;;;;6.10;3.50;;;;;;;-1.14;94.14;98095.83;103537;1300;23107;-25
2022/04/02 00:27:58;;;;;;;5.00;3.30;;;;;;;-1.17;94.39;98099.10;103430;1301;24249;-29
2022/04/02 00:30:24;;;;;;;7.80;3.30;;;;;;;-1.19;94.49;98102.14;103405;1300;24221;-25
2022/04/02 00:32:50;;;;;;;9.10;3.90;;;;;;;-1.22;94.76;98100.14;103590;1302;24262;-25
2022/04/02 00:35:16;;;;;;;7.70;4.30;;;;;;;-1.25;95.16;98100.30;103570;1300;24252;-28
2022/04/02 00:37:42;;;;;;;5.90;2.00;;;;;;;-1.29;95.50;98098.52;103531;1302;24248;-27
2022/04/02 00:40:08;;;;;;;5.00;2.80;;;;;;;-1.34;95.37;98098.37;103600;1302;24238;-30
2022/04/02 00:42:34;;;;;;;9.30;3.20;;;;;;;-1.32;95.42;98097.14;103546;1301;22500;-25
2022/04/02 00:45:00;;;;;;;7.10;2.90;;;;;;;-1.36;95.10;98098.23;103533;1302;22511;-30
2022/04/02 00:47:25;;;;;;;10.50;4.00;;;;;;;-1.33;94.91;98105.83;103522;1302;25010;-24
2022/04/02 00:49:53;;;;;;;10.60;2.90;;;;;;;-1.33;94.99;98104.58;103553;1301;24298;-25
2022/04/02 00:52:21;;;;;;;7.00;3.90;;;;;;;-1.40;94.99;98104.63;103595;1302;24241;-25
2022/04/02 00:54:48;;;;;;;4.40;2.10;;;;;;;-1.38;95.49;98102.60;103542;1301;22500;-29
2022/04/02 00:57:13;;;;;;;5.80;2.90;;;;;;;-1.39;95.35;98105.16;103566;1300;24225;-25
2022/04/02 00:59:40;;;;;;;3.30;2.40;;;;;;;-1.51;95.24;98103.94;103576;1300;24216;-25
2022/04/02 01:02:06;;;;;;;8.50;2.90;;;;;;;-1.49;95.62;98106.73;103525;1300;24365;-25
2022/04/02 01:04:31;;;;;;;8.40;3.30;;;;;;;-1.45;95.41;98106.83;103619;1300;24256;-26
2022/04/02 01:06:59;;;;;;;13.40;5.30;;;;;;;-1.44;95.45;98106.23;103585;1300;24312;-24
2022/04/02 01:09:25;;;;;;;16.50;2.40;;;;;;;-1.38;95.20;98106.55;103537;1300;24354;-25
2022/04/02 01:11:52;;;;;;;3.10;2.40;;;;;;;-1.45;95.24;98113.17;103590;1300;24312;-29
2022/04/02 01:14:18;;;;;;;7.30;3.20;;;;;;;-1.51;95.28;98108.41;103571;1300;23040;-28
2022/04/02 01:16:45;;;;;;;6.00;2.60;;;;;;;-1.49;95.72;98108.66;103551;1302;24301;-25
2022/04/02 01:19:11;;;;;;;8.90;5.00;;;;;;;-1.49;95.94;98112.11;103546;1300;25228;-29
2022/04/02 01:21:37;;;;;;;3.60;1.50;;;;;;;-1.47;95.78;98109.51;103545;1300;24218;-28
2022/04/02 01:24:03;;;;;;;6.20;3.00;;;;;;;-1.42;96.05;98106.88;103615;1302;23699;-29
2022/04/02 01:26:29;;;;;;;10.30;4.40;;;;;;;-1.42;95.86;98107.45;103559;1302;24244;-28
2022/04/02 01:28:56;;;;;;;5.90;3.80;;;;;;;-1.43;95.83;98106.28;103506;1302;24279;-30
2022/04/02 01:31:22;;;;;;;11.20;4.10;;;;;;;-1.41;95.92;98102.80;103544;1302;23908;-29
2022/04/02 01:33:49;;;;;;;5.90;3.40;;;;;;;-1.42;95.95;98106.65;103638;1300;24260;-26
2022/04/02 01:36:15;;;;;;;9.80;3.20;;;;;;;-1.43;95.61;98108.57;103574;1300;24250;-26
2022/04/02 01:38:41;;;;;;;13.70;4.00;;;;;;;-1.45;95.49;98106.65;103561;1300;24462;-28
2022/04/02 01:41:06;;;;;;;42.80;5.50;;;;;;;-1.47;95.51;98104.89;103523;1300;23611;-28
2022/04/02 01:43:33;;;;;;;18.00;5.30;;;;;;;-1.42;95.56;98103.33;103500;1300;23791;-30
2022/04/02 01:45:59;;;;;;;17.10;5.50;;;;;;;-1.39;94.89;98103.20;103578;1300;24336;-28
2022/04/02 01:48:25;;;;;;;19.10;4.20;;;;;;;-1.43;94.39;98105.40;103537;1302;24218;-25
2022/04/02 01:50:51;;;;;;;14.50;4.60;;;;;;;-1.49;94.02;98104.55;103480;1302;24217;-25
2022/04/02 01:53:17;;;;;;;5.30;2.90;;;;;;;-1.43;93.65;98105.53;103434;1302;23522;-26
2022/04/02 01:55:43;;;;;;;11.60;3.40;;;;;;;-1.40;93.10;98104.09;103571;1302;24212;-25
2022/04/02 01:58:09;;;;;;;15.10;2.70;;;;;;;-1.36;93.07;98109.65;103517;1302;24358;-28
2022/04/02 02:00:36;;;;;;;4.10;2.50;;;;;;;-1.26;93.47;98106.70;103619;1300;23531;-28
2022/04/02 02:03:01;;;;;;;7.80;3.10;;;;;;;-1.31;92.30;98114.23;103571;1302;22495;-27
2022/04/02 02:05:28;;;;;;;7.70;2.50;;;;;;;-1.29;91.47;98114.32;103524;1300;23599;-25
2022/04/02 02:07:54;;;;;;;3.60;2.30;;;;;;;-1.31;90.92;98115.39;103557;1302;22494;-25
2022/04/02 02:10:20;;;;;;;4.80;2.10;;;;;;;-1.27;91.21;98116.11;103578;1302;22886;-28
2022/04/02 02:12:46;;;;;;;11.00;3.00;;;;;;;-1.33;90.26;98116.66;103512;1302;24349;-23
2022/04/02 02:15:16;;;;;;;3.70;1.60;;;;;;;-1.39;89.70;98120.66;103478;1302;22726;-28
2022/04/02 02:17:44;;;;;;;2.70;1.70;;;;;;;-1.31;89.84;98121.11;103631;1300;24237;-30
2022/04/02 02:20:11;;;;;;;4.60;2.10;;;;;;;-1.29;89.55;98121.40;103592;1300;25029;-30
2022/04/02 02:22:38;;;;;;;2.90;1.80;;;;;;;-1.25;88.85;98125.38;103599;1301;22871;-30
2022/04/02 02:25:05;;;;;;;5.80;1.70;;;;;;;-1.30;88.39;98125.17;103541;1300;23861;-29
2022/04/02 02:27:31;;;;;;;7.10;2.90;;;;;;;-1.18;87.99;98123.06;103587;1302;25948;-29
2022/04/02 02:29:57;;;;;;;5.60;2.60;;;;;;;-1.21;88.12;98123.01;103557;1302;24222;-25
2022/04/02 02:32:22;;;;;;;3.20;2.50;;;;;;;-1.24;87.85;98123.66;103550;1302;24381;-25
2022/04/02 02:37:18;;;;;;;2.00;1.10;;;;;;;-1.34;87.48;98121.71;103531;1300;22607;-31
2022/04/02 02:39:44;;;;;;;5.90;2.70;;;;;;;-1.35;88.11;98121.88;103568;1301;24989;-27
2022/04/02 02:42:10;;;;;;;8.70;2.20;;;;;;;-1.40;88.73;98122.86;103486;1301;24404;-24
2022/04/02 02:44:36;;;;;;;4.70;1.70;;;;;;;-1.48;89.13;98125.75;103516;1300;24280;-28
2022/04/02 02:47:02;;;;;;;4.60;2.40;;;;;;;-1.50;89.51;98126.82;103558;1300;24237;-25
2022/04/02 02:49:28;;;;;;;2.70;1.50;;;;;;;-1.50;89.67;98126.46;103587;1300;24245;-30
2022/04/02 02:51:54;;;;;;;5.10;1.40;;;;;;;-1.49;89.64;98132.27;103573;1300;24273;-26
2022/04/02 02:54:20;;;;;;;4.50;1.40;;;;;;;-1.55;90.27;98134.32;103560;1300;22517;-25
2022/04/02 02:56:45;;;;;;;2.80;1.40;;;;;;;-1.58;90.06;98138.70;103482;1300;24355;-29
2022/04/02 02:59:12;;;;;;;3.00;1.50;;;;;;;-1.62;90.46;98139.45;103488;1302;22498;-25
2022/04/02 03:01:37;;;;;;;6.10;1.10;;;;;;;-1.65;90.85;98139.39;103548;1301;24284;-29
2022/04/02 03:04:03;;;;;;;8.40;2.00;;;;;;;-1.70;91.19;98140.57;103586;1300;23927;-30
2022/04/02 03:06:29;;;;;;;7.50;1.40;;;;;;;-1.60;91.25;98142.03;103489;1302;22498;-25
2022/04/02 03:08:55;;;;;;;4.60;2.00;;;;;;;-1.68;91.16;98141.92;103509;1300;23509;-25
2022/04/02 03:11:20;;;;;;;2.70;1.50;;;;;;;-1.70;90.97;98144.23;103544;1300;24287;-30
2022/04/02 03:13:46;;;;;;;3.30;1.50;;;;;;;-1.74;91.51;98145.52;103540;1300;24214;-28
2022/04/02 03:16:12;;;;;;;5.00;2.40;;;;;;;-1.71;91.47;98147.52;103550;1300;22501;-25
2022/04/02 03:18:37;;;;;;;4.40;2.00;;;;;;;-1.78;91.44;98148.85;103538;1300;24320;-25
2022/04/02 03:21:03;;;;;;;3.00;0.80;;;;;;;-1.81;92.23;98148.45;103514;1302;24268;-26
2022/04/02 03:23:29;;;;;;;3.20;1.00;;;;;;;-1.77;92.49;98152.08;103506;1302;24300;-28
2022/04/02 03:25:55;;;;;;;3.60;1.80;;;;;;;-1.70;92.23;98153.16;103569;1301;24196;-28
2022/04/02 03:28:21;;;;;;;4.20;2.20;;;;;;;-1.77;92.18;98154.23;103571;1300;24309;-27
2022/04/02 03:30:46;;;;;;;4.10;2.00;;;;;;;-1.74;92.96;98152.33;103484;1301;24366;-29
2022/04/02 03:33:13;;;;;;;2.70;1.80;;;;;;;-1.77;92.60;98154.02;103531;1302;24247;-26
2022/04/02 03:35:42;;;;;;;5.50;2.80;;;;;;;-1.78;92.62;98151.05;103580;1300;23768;-25
2022/04/02 03:38:09;;;;;;;6.70;3.30;;;;;;;-1.72;92.73;98152.15;103549;1300;24294;-25
2022/04/02 03:40:35;;;;;;;9.50;3.30;;;;;;;-1.77;92.74;98150.72;103537;1300;23692;-25
2022/04/02 03:43:01;;;;;;;3.80;2.30;;;;;;;-1.79;93.10;98155.83;103588;1299;24369;-28
2022/04/02 03:45:27;;;;;;;6.80;3.20;;;;;;;-1.77;93.35;98153.30;103517;1302;24302;-25
2022/04/02 03:47:52;;;;;;;4.50;2.40;;;;;;;-1.72;93.28;98153.38;103489;1302;24268;-27
2022/04/02 03:50:18;;;;;;;6.50;2.20;;;;;;;-1.73;93.38;98153.85;103449;1300;24249;-25
2022/04/02 03:52:44;;;;;;;5.40;2.10;;;;;;;-1.82;93.63;98158.76;103582;1300;24306;-28
2022/04/02 03:55:10;;;;;;;5.20;2.40;;;;;;;-1.79;93.87;98157.35;103556;1300;24358;-25
2022/04/02 03:57:36;;;;;;;19.70;2.80;;;;;;;-1.77;94.00;98153.55;103488;1300;24313;-26
2022/04/02 04:00:04;;;;;;;4.30;2.00;;;;;;;-1.74;94.07;98157.13;103538;1300;24250;-29
2022/04/02 04:02:29;;;;;;;8.80;2.90;;;;;;;-1.76;94.01;98159.58;103502;1301;24217;-25
2022/04/02 04:04:55;;;;;;;9.30;3.80;;;;;;;-1.80;93.92;98160.86;103521;1302;24257;-25
2022/04/02 04:07:20;;;;;;;7.90;3.10;;;;;;;-1.76;94.40;98164.95;103540;1300;22533;-25
2022/04/02 04:09:46;;;;;;;6.60;2.70;;;;;;;-1.71;94.35;98164.51;103553;1300;24360;-29
2022/04/02 04:12:14;;;;;;;6.40;2.80;;;;;;;-1.73;94.11;98165.95;103492;1300;24214;-29
2022/04/02 04:14:40;;;;;;;5.80;2.90;;;;;;;-1.73;94.16;98173.33;103192;1300;24419;-25
2022/04/02 04:17:05;;;;;;;4.40;2.90;;;;;;;-1.69;94.29;98170.22;103489;1300;24205;-25
2022/04/02 04:19:31;;;;;;;7.80;3.70;;;;;;;-1.64;94.43;98177.33;103536;1300;24973;-25
2022/04/02 04:21:58;;;;;;;8.10;4.40;;;;;;;-1.68;93.88;98176.87;103566;1300;24496;-26
2022/04/02 04:24:23;;;;;;;6.20;3.10;;;;;;;-1.62;94.01;98180.43;103379;1301;24192;-26
2022/04/02 04:26:49;;;;;;;3.40;2.20;;;;;;;-1.66;93.48;98180.31;103514;1300;24240;-31
2022/04/02 04:29:15;;;;;;;8.00;4.20;;;;;;;-1.60;93.47;98176.60;103515;1301;24361;-26
2022/04/02 04:31:40;;;;;;;8.10;4.30;;;;;;;-1.66;92.99;98174.86;103548;1301;24282;-26
2022/04/02 04:34:06;;;;;;;12.60;5.40;;;;;;;-1.63;93.14;98174.64;103522;1300;24237;-26
2022/04/02 04:36:32;;;;;;;7.30;3.30;;;;;;;-1.58;93.24;98171.79;103578;1302;22949;-25
2022/04/02 04:38:58;;;;;;;5.90;4.60;;;;;;;-1.60;93.33;98174.67;103480;1300;24224;-24
2022/04/02 04:41:24;;;;;;;10.50;3.50;;;;;;;-1.66;93.12;98182.06;103559;1300;24214;-29
2022/04/02 04:43:50;;;;;;;6.60;3.20;;;;;;;-1.70;93.07;98182.15;103523;1300;24214;-26
2022/04/02 04:46:17;;;;;;;4.50;2.50;;;;;;;-1.72;93.37;98178.45;103449;1302;24358;-25
2022/04/02 04:48:43;;;;;;;5.70;3.70;;;;;;;-1.72;93.32;98183.02;103566;1302;23596;-29
2022/04/02 04:51:09;;;;;;;3.90;2.50;;;;;;;-1.74;93.68;98187.27;103695;1301;24225;-28
2022/04/02 04:53:36;;;;;;;5.40;3.30;;;;;;;-1.70;94.11;98190.02;103549;1302;23590;-27
2022/04/02 04:56:01;;;;;;;5.50;2.80;;;;;;;-1.79;93.94;98192.11;103625;1300;24216;-25
2022/04/02 04:58:27;;;;;;;3.40;2.30;;;;;;;-1.80;94.55;98198.36;103555;1302;24228;-24
2022/04/02 05:00:55;;;;;;;6.50;3.20;;;;;;;-1.84;94.95;98203.65;103537;1302;24306;-28
2022/04/02 05:03:22;;;;;;;5.60;3.60;;;;;;;-1.84;95.32;98203.12;103578;1300;24223;-25
2022/04/02 05:05:48;;;;;;;4.00;2.40;;;;;;;-1.82;95.85;98205.60;103571;1302;23615;-30
2022/04/02 05:08:13;;;;;;;19.30;2.90;;;;;;;-1.85;96.15;98206.19;103514;1301;22503;-28
2022/04/02 05:10:40;;;;;;;3.90;1.80;;;;;;;-1.80;96.36;98205.27;103536;1302;24320;-26
2022/04/02 05:13:07;;;;;;;10.30;4.10;;;;;;;-1.73;96.49;98204.54;103532;1300;23751;-28
2022/04/02 05:15:35;;;;;;;4.80;2.40;;;;;;;-1.75;96.27;98207.52;103463;1301;24302;-28
2022/04/02 05:18:02;;;;;;;3.70;2.30;;;;;;;-1.82;96.30;98211.86;103553;1300;24301;-30
2022/04/02 05:20:28;;;;;;;8.40;2.50;;;;;;;-1.69;96.53;98213.58;103568;1301;24266;-29
2022/04/02 05:22:54;;;;;;;4.50;2.70;;;;;;;-1.68;96.30;98212.81;103440;1300;24221;-29
2022/04/02 05:25:20;;;;;;;7.00;3.40;;;;;;;-1.64;95.05;98213.09;103493;1300;24247;-27
2022/04/02 05:27:47;;;;;;;4.60;3.00;;;;;;;-1.71;94.41;98211.55;103511;1300;23610;-28
2022/04/02 05:30:13;;;;;;;5.30;3.90;;;;;;;-1.86;94.68;98217.67;103520;1300;24241;-25
2022/04/02 05:32:39;;;;;;;5.80;3.80;;;;;;;-1.89;95.33;98218.32;103471;1300;24087;-25
2022/04/02 05:35:05;;;;;;;8.50;3.50;;;;;;;-1.83;95.93;98222.54;103652;1300;24240;-25
2022/04/02 05:37:32;;;;;;;6.00;3.10;;;;;;;-1.74;95.83;98223.80;103607;1300;24250;-25
2022/04/02 05:39:57;;;;;;;7.80;3.90;;;;;;;-1.72;95.56;98227.73;103507;1302;22634;-25
2022/04/02 05:42:25;;;;;;;5.90;3.20;;;;;;;-1.74;95.18;98225.45;103459;1302;24357;-25
2022/04/02 05:44:51;;;;;;;4.50;2.60;;;;;;;-1.81;95.42;98225.98;103557;1300;24338;-29
2022/04/02 05:47:17;;;;;;;3.60;2.30;;;;;;;-1.75;96.10;98228.40;103604;1300;24217;-25
2022/04/02 05:49:46;;;;;;;8.20;4.40;;;;;;;-1.65;96.42;98228.83;103608;1300;22515;-29
2022/04/02 05:52:12;;;;;;;5.80;4.30;;;;;;;-1.65;95.95;98231.79;103622;1300;25090;-25
2022/04/02 05:54:38;;;;;;;9.50;6.60;;;;;;;-1.56;96.10;98231.10;103511;1300;23999;-30
2022/04/02 05:57:04;;;;;;;6.10;3.60;;;;;;;-1.54;95.96;98231.31;103564;1300;24226;-31
2022/04/02 05:59:30;;;;;;;8.80;4.00;;;;;;;-1.53;95.42;98231.17;103545;1300;24661;-25
2022/04/02 06:01:56;;;;;;;4.70;3.50;;;;;;;-1.46;95.24;98234.39;103553;1300;24289;-25
2022/04/02 06:04:23;;;;;;;8.40;5.20;;;;;;;-1.43;95.06;98231.79;103542;1300;24301;-26
2022/04/02 06:06:48;;;;;;;5.60;3.50;;;;;;;-1.40;94.71;98233.80;103493;1300;24214;-30
2022/04/02 06:09:14;;;;;;;5.40;4.30;;;;;;;-1.41;94.41;98235.44;103522;1300;22496;-25
2022/04/02 06:11:40;;;;;;;5.80;4.30;;;;;;;-1.53;94.02;98236.44;103571;1300;24391;-30
2022/04/02 06:14:05;;;;;;;5.70;4.10;;;;;;;-1.45;94.01;98237.95;103515;1300;24249;-31
2022/04/02 06:16:31;;;;;;;8.70;5.60;;;;;;;-1.42;94.26;98239.80;103575;1300;24222;-29
2022/04/02 06:18:57;;;;;;;7.50;3.70;;;;;;;-1.28;94.71;98245.46;103518;1300;24244;-25
2022/04/02 06:21:22;;;;;;;7.10;5.50;;;;;;;-1.21;94.20;98242.81;103554;1300;22952;-30
2022/04/02 06:23:48;;;;;;;5.10;4.20;;;;;;;-1.16;93.73;98247.58;103535;1300;24251;-30
2022/04/02 06:26:14;;;;;;;5.90;4.10;;;;;;;-1.17;92.38;98250.13;103579;1300;24238;-29
2022/04/02 06:28:40;;;;;;;9.30;5.90;;;;;;;-1.35;91.74;98248.07;103582;1301;22489;-30
2022/04/02 06:31:07;;;;;;;4.40;3.30;;;;;;;-1.20;91.98;98245.91;103551;1300;24252;-29
2022/04/02 06:33:33;;;;;;;6.90;5.10;;;;;;;-1.11;91.99;98252.02;103595;1300;24246;-29
2022/04/02 06:35:59;;;;;;;6.40;5.20;;;;;;;-1.15;91.74;98256.13;103390;1302;24301;-25
2022/04/02 06:38:27;;;;;;;8.20;2.50;;;;;;;-1.09;90.97;98252.16;103497;1300;22520;-24
2022/04/02 06:40:53;;;;;;;7.40;4.50;;;;;;;-1.10;90.62;98258.25;103571;1300;24366;-24
2022/04/02 06:43:20;;;;;;;12.00;4.10;;;;;;;-1.14;90.75;98257.89;103532;1300;22499;-29
2022/04/02 06:45:45;;;;;;;8.70;5.10;;;;;;;-1.04;91.06;98259.98;103568;1300;24410;-27
2022/04/02 06:48:11;;;;;;;7.10;4.60;;;;;;;-0.91;90.93;98263.79;103520;1300;24221;-29
2022/04/02 06:50:37;;;;;;;12.20;7.40;;;;;;;-0.92;90.59;98266.15;103548;1300;24216;-24
2022/04/02 06:53:02;;;;;;;8.50;4.30;;;;;;;-0.93;90.36;98267.78;103522;1300;24267;-25
2022/04/02 06:55:28;;;;;;;6.10;4.30;;;;;;;-0.92;89.72;98271.06;103550;1300;24301;-25
2022/04/02 06:57:55;;;;;;;8.30;5.10;;;;;;;-0.94;89.94;98273.55;103534;1300;24224;-24
2022/04/02 07:00:21;;;;;;;10.60;6.90;;;;;;;-1.02;90.59;98278.55;103515;1300;24215;-29
2022/04/02 07:02:47;;;;;;;8.50;5.10;;;;;;;-0.91;92.02;98277.33;103550;1300;24237;-24
2022/04/02 07:05:14;;;;;;;14.40;7.20;;;;;;;-0.95;91.30;98283.62;103557;1300;24256;-30
2022/04/02 07:07:40;;;;;;;9.90;6.40;;;;;;;-1.12;90.72;98286.89;103514;1300;24315;-24
2022/04/02 07:10:06;;;;;;;6.30;4.70;;;;;;;-1.03;91.77;98287.92;103295;1300;24354;-24
2022/04/02 07:12:33;;;;;;;10.90;7.30;;;;;;;-0.97;92.66;98285.09;103511;1300;22790;-26
2022/04/02 07:14:59;;;;;;;10.40;6.00;;;;;;;-1.00;92.19;98288.52;103554;1300;24221;-29
2022/04/02 07:17:26;;;;;;;10.70;6.10;;;;;;;-0.95;91.16;98287.30;103439;1302;24328;-26
2022/04/02 07:19:52;;;;;;;10.60;5.30;;;;;;;-1.25;90.96;98293.21;103492;1300;24312;-31
2022/04/02 07:22:18;;;;;;;8.60;4.90;;;;;;;-1.37;90.84;98293.17;103519;1300;22500;-29
2022/04/02 07:24:44;;;;;;;7.80;5.20;;;;;;;-1.23;91.33;98292.40;103573;1300;24251;-29
2022/04/02 07:27:10;;;;;;;7.80;4.40;;;;;;;-1.19;90.89;98291.27;103532;1300;25226;-30
2022/04/02 07:29:36;;;;;;;6.80;5.30;;;;;;;-1.10;90.95;98293.02;103599;1300;23615;-28
2022/04/02 07:32:02;;;;;;;10.70;6.30;;;;;;;-1.18;91.37;98294.98;103540;1300;24221;-24
2022/04/02 07:34:28;;;;;;;7.00;5.60;;;;;;;-1.11;91.81;98294.21;103585;1300;24212;-29
2022/04/02 07:36:56;;;;;;;13.50;7.50;;;;;;;-1.04;91.73;98292.66;103500;1300;24313;-29
2022/04/02 07:39:32;;;;;;;14.10;7.70;;;;;;;-1.08;91.24;98290.38;103656;1300;22497;-31
2022/04/02 07:42:03;;;;;;;9.90;5.60;;;;;;;-1.11;90.32;98294.54;103585;1300;22693;-25
2022/04/02 07:44:32;;;;;;;10.40;5.60;;;;;;;-1.09;91.05;98299.24;103488;1301;23604;-25
2022/04/02 07:46:58;;;;;;;13.10;6.40;;;;;;;-1.08;90.13;98302.14;103548;1302;25016;-24
2022/04/02 07:49:26;;;;;;;6.60;5.00;;;;;;;-1.15;89.82;98304.43;103580;1300;24242;-29
2022/04/02 07:51:53;;;;;;;9.30;5.80;;;;;;;-1.15;89.90;98307.23;103531;1300;24315;-30
2022/04/02 07:54:23;;;;;;;7.00;3.90;;;;;;;-1.01;89.81;98306.88;103681;1300;22802;-29
2022/04/02 07:56:50;;;;;;;7.10;5.40;;;;;;;-0.83;89.38;98302.38;103590;1300;22973;-25
2022/04/02 07:59:22;;;;;;;11.20;4.80;;;;;;;-1.13;88.18;98305.44;103562;1300;22696;-26
2022/04/02 08:01:48;;;;;;;5.50;4.50;;;;;;;-0.89;88.71;98308.39;103537;1300;23822;-26
2022/04/02 08:04:14;;;;;;;9.20;6.30;;;;;;;-0.92;87.72;98309.15;103517;1302;24174;-29
2022/04/02 08:06:39;;;;;;;8.10;5.00;;;;;;;-1.05;87.48;98309.48;103477;1298;24288;-25
2022/04/02 08:09:05;;;;;;;18.10;6.40;;;;;;;-1.08;88.02;98313.90;103513;1301;24202;-25
2022/04/02 08:11:31;;;;;;;8.70;5.40;;;;;;;-1.00;88.01;98314.23;103550;1300;24360;-24
2022/04/02 08:13:57;;;;;;;6.10;4.10;;;;;;;-1.14;87.59;98317.48;103579;1300;24320;-29
2022/04/02 08:16:22;;;;;;;10.00;7.00;;;;;;;-0.75;88.95;98322.77;103542;1300;24286;-26
2022/04/02 08:18:48;;;;;;;11.90;6.10;;;;;;;-0.59;88.97;98325.62;103557;1300;24285;-24
2022/04/02 08:21:15;;;;;;;8.70;5.40;;;;;;;-0.74;87.66;98331.65;103462;1300;24255;-29
2022/04/02 08:23:41;;;;;;;10.60;7.60;;;;;;;-0.56;87.80;98328.65;103592;1300;24288;-29
2022/04/02 08:26:11;;;;;;;15.00;8.50;;;;;;;-0.69;86.34;98333.97;103549;1300;24246;-25
2022/04/02 08:28:44;;;;;;;9.70;5.50;;;;;;;-0.65;86.19;98336.80;103609;1300;22824;-29
2022/04/02 08:31:15;;;;;;;8.60;4.00;;;;;;;-0.63;87.03;98340.91;103565;1300;24231;-29
2022/04/02 08:33:48;;;;;;;11.00;5.90;;;;;;;-0.53;87.46;98343.11;103569;1300;24196;-26
2022/04/02 08:36:21;;;;;;;14.70;8.40;;;;;;;-0.30;87.16;98345.05;103523;1302;24195;-25
2022/04/02 08:38:50;;;;;;;24.40;5.80;;;;;;;-0.34;86.33;98349.70;103544;1300;24224;-24
2022/04/02 08:41:20;;;;;;;13.40;6.80;;;;;;;-0.49;85.79;98350.98;103540;1301;24214;-24
2022/04/02 08:43:52;;;;;;;15.00;6.20;;;;;;;-0.34;85.96;98349.17;103613;1300;23590;-26
2022/04/02 08:46:22;;;;;;;10.10;6.50;;;;;;;-0.51;85.43;98351.20;103551;1300;23808;-26
2022/04/02 08:49:01;;;;;;;12.10;5.90;;;;;;;-0.51;85.70;98347.70;103545;1300;22511;-24
2022/04/02 08:51:30;;;;;;;11.20;5.40;;;;;;;-0.36;85.93;98348.89;103652;1300;24229;-28
2022/04/02 08:54:02;;;;;;;6.40;3.60;;;;;;;-0.40;85.63;98349.55;103590;1300;24306;-26
2022/04/02 08:56:28;;;;;;;7.50;5.70;;;;;;;-0.06;86.04;98348.58;103567;1300;22997;-28
2022/04/02 08:59:00;;;;;;;8.00;5.00;;;;;;;0.06;86.17;98347.23;103441;1300;24225;-30
2022/04/02 09:01:31;;;;;;;5.50;3.00;;;;;;;0.09;85.50;98348.17;103570;1300;22588;-24
2022/04/02 09:04:08;;;;;;;15.20;6.10;;;;;;;0.03;84.61;98349.30;103462;1302;24251;-30
2022/04/02 09:06:39;;;;;;;7.00;4.00;;;;;;;0.04;84.74;98347.11;103514;1302;25225;-24
2022/04/02 09:09:06;;;;;;;9.00;5.10;;;;;;;-0.23;84.51;98353.70;103556;1300;23610;-28
2022/04/02 09:11:40;;;;;;;11.60;5.40;;;;;;;0.10;85.85;98353.48;103575;1300;25465;-28
2022/04/02 09:14:14;;;;;;;9.10;5.50;;;;;;;0.34;86.16;98355.88;103461;1300;24341;-26
2022/04/02 09:16:48;;;;;;;7.00;5.40;;;;;;;0.58;86.06;98358.13;103615;1300;23171;-31
2022/04/02 09:19:24;;;;;;;16.40;8.00;;;;;;;0.79;85.04;98362.14;103513;1300;24242;-24
2022/04/02 09:21:57;;;;;;;6.80;4.30;;;;;;;1.05;84.56;98363.45;103456;1302;23875;-30
2022/04/02 09:24:26;;;;;;;3.00;2.60;;;;;;;0.79;80.27;98362.65;103569;1300;24416;-28
2022/04/02 09:26:57;;;;;;;8.90;4.00;;;;;;;0.82;79.08;98360.43;103551;1300;24302;-24
2022/04/02 09:29:27;;;;;;;7.40;3.80;;;;;;;0.77;79.00;98360.02;103629;1300;22506;-28
2022/04/02 09:31:58;;;;;;;4.30;2.60;;;;;;;0.88;79.64;98362.77;103542;1300;24370;-28
2022/04/02 09:34:31;;;;;;;7.90;3.10;;;;;;;0.78;78.64;98362.66;103553;1300;22506;-28
2022/04/02 09:37:00;;;;;;;;;;;;;;;0.60;78.33;98368.17;103622;1301;24302;-31
2022/04/02 09:39:51;;;;;;;7.20;4.70;;;;;;;0.54;77.64;98365.21;103536;1300;24003;-24
2022/04/02 09:42:21;;;;;;;4.80;2.80;;;;;;;0.77;77.93;98366.00;103598;1300;24340;-29
2022/04/02 09:44:49;;;;;;;8.40;4.70;;;;;;;0.85;77.97;98371.98;103619;1300;22517;-29
2022/04/02 09:47:21;;;;;;;7.80;4.30;;;;;;;0.66;77.76;98374.20;103623;1302;24016;-24
2022/04/02 09:49:54;;;;;;;5.60;3.20;;;;;;;0.52;78.40;98381.25;103624;1300;23747;-24
2022/04/02 09:52:22;;;;;;;7.80;3.90;;;;;;;0.50;77.48;98380.94;103498;1300;24217;-24
2022/04/02 09:54:54;;;;;;;5.10;3.50;;;;;;;0.24;77.82;98384.30;103629;1300;24359;-24
2022/04/02 09:57:23;;;;;;;6.80;4.30;;;;;;;0.36;78.97;98381.46;103563;1300;25440;-30
2022/04/02 09:59:52;;;;;;;10.00;5.70;;;;;;;0.61;80.40;98381.40;103615;1300;24342;-29
2022/04/02 10:02:33;;;;;;;10.10;5.00;;;;;;;0.77;80.99;98376.17;103606;1300;23463;-26
2022/04/02 10:05:04;;;;;;;7.70;5.10;;;;;;;0.61;79.66;98377.33;103571;1300;22518;-26
2022/04/02 10:07:36;;;;;;;8.60;4.90;;;;;;;0.82;80.38;98377.66;103587;1300;22505;-29
2022/04/02 10:10:02;;;;;;;7.00;4.90;;;;;;;0.79;79.17;98377.77;103554;1300;25368;-29
2022/04/02 10:12:29;;;;;;;8.90;5.80;;;;;;;0.76;79.28;98379.27;103410;1300;24253;-29
2022/04/02 10:14:57;;;;;;;21.20;9.80;;;;;;;0.69;79.87;98376.15;103585;1300;24463;-29
2022/04/02 10:17:25;;;;;;;9.70;5.90;;;;;;;0.86;80.85;98382.02;103609;1300;24260;-25
2022/04/02 10:19:51;;;;;;;13.20;5.90;;;;;;;0.99;81.11;98379.43;103648;1300;24034;-29
2022/04/02 10:22:16;;;;;;;7.00;5.50;;;;;;;1.01;80.74;98381.98;103551;1300;24457;-32
2022/04/02 10:24:46;;;;;;;11.20;5.00;;;;;;;1.03;80.27;98382.98;103515;1300;24218;-25
2022/04/02 10:27:13;;;;;;;17.60;7.20;;;;;;;0.96;79.85;98379.17;103583;1300;23865;-24
2022/04/02 10:29:46;;;;;;;21.60;8.70;;;;;;;1.05;80.76;98377.08;103536;1300;23591;-28
2022/04/02 10:32:21;;;;;;;17.80;6.70;;;;;;;1.01;80.40;98374.24;103611;1300;24187;-28
2022/04/02 10:34:51;;;;;;;12.00;5.30;;;;;;;1.11;79.66;98377.05;103558;1300;22748;-29
2022/04/02 10:37:17;;;;;;;12.60;6.00;;;;;;;1.11;80.11;98378.70;103569;1300;24217;-25
2022/04/02 10:39:49;;;;;;;7.60;5.00;;;;;;;1.20;80.26;98376.81;103628;1300;24225;-24
2022/04/02 10:42:17;;;;;;;14.00;7.50;;;;;;;1.30;79.39;98375.02;103565;1300;23584;-29
2022/04/02 10:44:48;;;;;;;12.60;7.60;;;;;;;1.47;77.77;98372.32;103609;1300;24225;-28
2022/04/02 10:47:16;;;;;;;24.80;10.70;;;;;;;1.64;77.75;98374.58;103553;1300;24354;-25
2022/04/02 10:49:42;;;;;;;12.90;7.50;;;;;;;1.62;76.53;98373.95;103574;1300;22875;-25
2022/04/02 10:52:10;;;;;;;15.60;7.90;;;;;;;1.58;77.03;98372.13;103578;1300;24305;-29
2022/04/02 10:54:36;;;;;;;10.40;4.40;;;;;;;1.57;78.04;98373.58;103885;1300;22613;-25
2022/04/02 10:57:02;;;;;;;8.90;5.80;;;;;;;1.55;78.67;98374.55;103533;1300;23835;-30
2022/04/02 10:59:30;;;;;;;10.90;6.00;;;;;;;1.76;78.77;98373.26;103552;1300;23605;-28
2022/04/02 11:01:59;;;;;;;8.40;5.00;;;;;;;1.79;75.83;98377.56;103461;1301;24192;-26
2022/04/02 11:04:30;;;;;;;7.70;3.10;;;;;;;1.57;75.68;98372.88;103583;1300;24279;-29
2022/04/02 11:06:57;;;;;;;5.80;3.90;;;;;;;1.55;75.36;98368.29;103588;1300;22772;-24
2022/04/02 11:09:25;;;;;;;6.20;3.70;;;;;;;1.66;75.48;98370.65;103566;1300;23398;-25
2022/04/02 11:11:51;;;;;;;9.30;4.00;;;;;;;2.05;75.73;98366.45;103600;1300;22517;-28
2022/04/02 11:14:20;;;;;;;7.60;4.20;;;;;;;2.07;75.35;98364.66;103654;1300;24340;-28
2022/04/02 11:16:46;;;;;;;5.10;3.70;;;;;;;1.96;73.25;98368.02;103553;1300;24279;-28
2022/04/02 11:21:43;;;;;;;4.70;3.20;;;;;;;2.18;74.69;98371.07;103582;1300;24255;-30
2022/04/02 11:24:09;;;;;;;3.80;2.60;;;;;;;2.21;72.83;98374.23;103501;1300;22587;-25
2022/04/02 11:26:35;;;;;;;5.40;4.20;;;;;;;1.90;72.71;98376.36;103541;1299;22508;-25
2022/04/02 11:29:02;;;;;;;10.30;4.40;;;;;;;1.85;73.21;98378.88;103623;1300;24301;-28
2022/04/02 11:31:28;;;;;;;6.80;4.20;;;;;;;1.89;72.61;98378.13;103589;1300;24308;-25